Time,TemperatureF,DewpointF,PressureIn,WindDirection,WindDirectionDegrees,WindSpeedMPH,WindSpeedGustMPH,Humidity,HourlyPrecipIn,Conditions,Clouds,dailyrainin,SolarRadiationWatts/m^2,SoftwareType,DateUTC
2013-06-29 00:33:00,72.0,53.0,-100.00,ENE,66,2.0,4.0,52,0.00,,,0.00,0.000000,,2013-06-29 06:33:00,
2013-06-29 00:43:00,72.0,53.0,-100.00,ENE,66,2.0,4.0,52,0.00,,,0.00,0.000000,,2013-06-29 06:43:00,
2013-06-29 00:53:00,72.0,53.0,-100.00,ENE,66,2.0,4.0,52,0.00,,,0.00,0.000000,,2013-06-29 06:53:00,
2013-06-29 01:33:00,68.0,51.0,-100.00,SE,127,5.0,7.0,54,0.00,,,0.00,0.000000,,2013-06-29 07:33:00,
2013-06-29 01:43:00,68.0,51.0,-100.00,SE,127,5.0,7.0,54,0.00,,,0.00,0.000000,,2013-06-29 07:43:00,
2013-06-29 01:53:00,68.0,51.0,-100.00,SE,127,5.0,7.0,54,0.00,,,0.00,0.000000,,2013-06-29 07:53:00,
2013-06-29 02:33:00,66.0,53.0,-100.00,ESE,107,5.0,9.0,63,0.00,,,0.00,0.000000,,2013-06-29 08:33:00,
2013-06-29 02:43:00,66.0,53.0,-100.00,ESE,107,5.0,9.0,63,0.00,,,0.00,0.000000,,2013-06-29 08:43:00,
2013-06-29 02:52:00,66.0,53.0,-100.00,ESE,107,5.0,9.0,63,0.00,,,0.00,0.000000,,2013-06-29 08:52:00,
2013-06-29 03:33:00,63.0,53.0,-100.00,ENE,58,1.0,7.0,71,0.00,,,0.00,0.000000,,2013-06-29 09:33:00,
2013-06-29 03:42:00,63.0,53.0,-100.00,ENE,58,1.0,7.0,71,0.00,,,0.00,0.000000,,2013-06-29 09:42:00,
2013-06-29 03:53:00,63.0,53.0,-100.00,ENE,58,1.0,7.0,71,0.00,,,0.00,0.000000,,2013-06-29 09:53:00,
2013-06-29 04:33:00,60.0,53.0,-100.00,SE,139,4.0,5.0,77,0.00,,,0.00,0.000000,,2013-06-29 10:33:00,
2013-06-29 04:43:00,60.0,53.0,-100.00,SE,139,4.0,5.0,77,0.00,,,0.00,0.000000,,2013-06-29 10:43:00,
2013-06-29 04:52:00,60.0,53.0,-100.00,SE,139,4.0,5.0,77,0.00,,,0.00,0.000000,,2013-06-29 10:52:00,
2013-06-29 06:34:00,58.0,55.0,-100.00,ESE,113,4.0,6.0,89,-99.99,,,0.00,5.000000,,2013-06-29 12:34:00,
2013-06-29 06:43:00,58.0,55.0,-100.00,ESE,113,4.0,6.0,89,-99.99,,,0.00,5.000000,,2013-06-29 12:43:00,
2013-06-29 06:53:00,58.0,55.0,-100.00,ESE,113,4.0,6.0,89,-99.99,,,0.00,5.000000,,2013-06-29 12:53:00,
2013-06-29 07:34:00,63.0,57.0,-100.00,SE,133,6.0,8.0,80,-99.99,,,0.00,114.000000,,2013-06-29 13:34:00,
2013-06-29 07:43:00,63.0,57.0,-100.00,SE,133,6.0,8.0,80,-99.99,,,0.00,114.000000,,2013-06-29 13:43:00,
2013-06-29 07:53:00,63.0,57.0,-100.00,SE,133,6.0,8.0,80,-99.99,,,0.00,114.000000,,2013-06-29 13:53:00,
2013-06-29 08:34:00,70.0,58.0,-100.00,SSE,153,4.0,7.0,66,0.00,,,0.00,284.000000,,2013-06-29 14:34:00,
2013-06-29 08:44:00,70.0,58.0,-100.00,SSE,153,4.0,7.0,66,0.00,,,0.00,284.000000,,2013-06-29 14:44:00,
2013-06-29 08:53:00,70.0,58.0,-100.00,SSE,153,4.0,7.0,66,0.00,,,0.00,284.000000,,2013-06-29 14:53:00,
2013-06-29 09:33:00,77.0,60.0,-100.00,SE,144,3.0,6.0,55,0.00,,,0.00,455.000000,,2013-06-29 15:33:00,
2013-06-29 09:42:00,77.0,60.0,-100.00,SE,144,3.0,6.0,55,0.00,,,0.00,455.000000,,2013-06-29 15:42:00,
2013-06-29 09:53:00,77.0,60.0,-100.00,SE,144,3.0,6.0,55,0.00,,,0.00,455.000000,,2013-06-29 15:53:00,
2013-06-29 10:33:00,79.0,57.0,-100.00,ESE,116,5.0,9.0,47,0.00,,,0.00,616.000000,,2013-06-29 16:33:00,
2013-06-29 10:43:00,79.0,57.0,-100.00,ESE,116,5.0,9.0,47,0.00,,,0.00,616.000000,,2013-06-29 16:43:00,
2013-06-29 10:53:00,79.0,57.0,-100.00,ESE,116,5.0,9.0,47,0.00,,,0.00,616.000000,,2013-06-29 16:53:00,
2013-06-29 11:34:00,84.0,58.0,-100.00,North,10,3.0,7.0,42,0.00,,,0.00,752.000000,,2013-06-29 17:34:00,
2013-06-29 11:42:00,84.0,58.0,-100.00,North,10,3.0,7.0,42,0.00,,,0.00,752.000000,,2013-06-29 17:42:00,
2013-06-29 11:52:00,84.0,58.0,-100.00,North,10,3.0,7.0,42,0.00,,,0.00,752.000000,,2013-06-29 17:52:00,
2013-06-29 12:22:00,85.0,53.0,-100.00,NNE,33,6.0,10.0,34,0.00,,,0.00,851.000000,,2013-06-29 18:22:00,
2013-06-29 12:34:00,85.0,53.0,-100.00,NNE,33,6.0,10.0,34,0.00,,,0.00,851.000000,,2013-06-29 18:34:00,
2013-06-29 12:43:00,85.0,53.0,-100.00,NNE,33,6.0,10.0,34,0.00,,,0.00,851.000000,,2013-06-29 18:43:00,
2013-06-29 12:52:00,85.0,53.0,-100.00,NNE,33,6.0,10.0,34,0.00,,,0.00,851.000000,,2013-06-29 18:52:00,
2013-06-29 13:34:00,87.0,54.0,-100.00,NE,50,4.0,11.0,32,0.00,,,0.00,903.000000,,2013-06-29 19:34:00,
2013-06-29 13:43:00,87.0,54.0,-100.00,NE,50,4.0,11.0,32,0.00,,,0.00,903.000000,,2013-06-29 19:43:00,
2013-06-29 13:54:00,87.0,54.0,-100.00,NE,50,4.0,11.0,32,0.00,,,0.00,903.000000,,2013-06-29 19:54:00,
2013-06-29 14:33:00,87.0,54.0,-100.00,ENE,59,6.0,12.0,32,0.00,,,0.00,910.000000,,2013-06-29 20:33:00,
2013-06-29 14:43:00,87.0,54.0,-100.00,ENE,59,6.0,12.0,32,0.00,,,0.00,910.000000,,2013-06-29 20:43:00,
2013-06-29 14:52:00,87.0,54.0,-100.00,ENE,59,6.0,12.0,32,0.00,,,0.00,910.000000,,2013-06-29 20:52:00,
2013-06-29 15:32:00,89.0,55.0,-100.00,ENE,68,6.0,11.0,32,0.00,,,0.00,873.000000,,2013-06-29 21:32:00,
2013-06-29 15:42:00,89.0,55.0,-100.00,ENE,68,6.0,11.0,32,0.00,,,0.00,873.000000,,2013-06-29 21:42:00,
2013-06-29 15:52:00,89.0,55.0,-100.00,ENE,68,6.0,11.0,32,0.00,,,0.00,873.000000,,2013-06-29 21:52:00,
2013-06-29 16:33:00,90.0,56.0,-100.00,ENE,57,6.0,14.0,32,0.00,,,0.00,786.000000,,2013-06-29 22:33:00,
2013-06-29 16:43:00,90.0,56.0,-100.00,ENE,57,6.0,14.0,32,0.00,,,0.00,786.000000,,2013-06-29 22:43:00,
2013-06-29 16:53:00,90.0,56.0,-100.00,ENE,57,6.0,14.0,32,0.00,,,0.00,786.000000,,2013-06-29 22:53:00,
2013-06-29 17:23:00,87.0,52.0,-100.00,ENE,71,7.0,12.0,30,0.00,,,0.00,604.000000,,2013-06-29 23:23:00,
2013-06-29 17:34:00,87.0,52.0,-100.00,ENE,71,7.0,12.0,30,0.00,,,0.00,604.000000,,2013-06-29 23:34:00,
2013-06-29 17:43:00,87.0,52.0,-100.00,ENE,71,7.0,12.0,30,0.00,,,0.00,604.000000,,2013-06-29 23:43:00,
2013-06-29 17:52:00,87.0,52.0,-100.00,ENE,71,7.0,12.0,30,0.00,,,0.00,604.000000,,2013-06-29 23:52:00,
2013-06-29 18:33:00,87.0,52.0,-100.00,East,80,10.0,17.0,30,0.00,,,0.00,462.000000,,2013-06-30 00:33:00,
2013-06-29 18:43:00,87.0,52.0,-100.00,East,80,10.0,17.0,30,0.00,,,0.00,462.000000,,2013-06-30 00:43:00,
2013-06-29 18:52:00,87.0,52.0,-100.00,East,80,10.0,17.0,30,0.00,,,0.00,462.000000,,2013-06-30 00:52:00,
2013-06-29 19:33:00,86.0,52.0,-100.00,East,84,7.0,12.0,31,0.00,,,0.00,314.000000,,2013-06-30 01:33:00,
2013-06-29 19:44:00,86.0,52.0,-100.00,East,84,7.0,12.0,31,0.00,,,0.00,314.000000,,2013-06-30 01:44:00,
2013-06-29 19:53:00,86.0,52.0,-100.00,East,84,7.0,12.0,31,0.00,,,0.00,314.000000,,2013-06-30 01:53:00,
2013-06-29 20:33:00,80.0,55.0,-100.00,ENE,72,9.0,13.0,43,0.00,,,0.00,102.000000,,2013-06-30 02:33:00,
2013-06-29 20:43:00,80.0,55.0,-100.00,ENE,72,9.0,13.0,43,0.00,,,0.00,102.000000,,2013-06-30 02:43:00,
2013-06-29 20:53:00,80.0,55.0,-100.00,ENE,72,9.0,13.0,43,0.00,,,0.00,102.000000,,2013-06-30 02:53:00,
2013-06-29 21:33:00,77.0,53.0,-100.00,ENE,75,8.0,12.0,44,0.00,,,0.00,22.000000,,2013-06-30 03:33:00,
2013-06-29 21:43:00,77.0,53.0,-100.00,ENE,75,8.0,12.0,44,0.00,,,0.00,22.000000,,2013-06-30 03:43:00,
2013-06-29 21:53:00,77.0,53.0,-100.00,ENE,75,8.0,12.0,44,0.00,,,0.00,22.000000,,2013-06-30 03:53:00,
2013-06-29 22:33:00,74.0,52.0,-100.00,ESE,118,4.0,10.0,46,0.00,,,0.00,0.000000,,2013-06-30 04:33:00,
2013-06-29 22:43:00,74.0,52.0,-100.00,ESE,118,4.0,10.0,46,0.00,,,0.00,0.000000,,2013-06-30 04:43:00,
2013-06-29 22:53:00,74.0,52.0,-100.00,ESE,118,4.0,10.0,46,0.00,,,0.00,0.000000,,2013-06-30 04:53:00,
2013-06-29 23:33:00,73.0,52.0,-100.00,WNW,301,4.0,10.0,48,0.00,,,0.00,0.000000,,2013-06-30 05:33:00,
2013-06-29 23:43:00,73.0,52.0,-100.00,WNW,301,4.0,10.0,48,0.00,,,0.00,0.000000,,2013-06-30 05:43:00,
2013-06-29 23:53:00,73.0,52.0,-100.00,WNW,301,4.0,10.0,48,0.00,,,0.00,0.000000,,2013-06-30 05:53:00,